Time;durP1;ratioP1;P1;durP2;ratioP2;P2;SDS_P1;SDS_P2;PMS_P1;PMS_P2;Temp;Humidity;BMP_temperature;BMP_pressure;BME280_temperature;BME280_humidity;BME280_pressure;Samples;Min_cycle;Max_cycle;Signal;HPM_P1;HPM_P2
2022/08/14 00:00:11;;;;;;;0.85;0.85;;;;;;;25.88;30.57;100617.75;5200407;28;20064;-82
2022/08/14 00:02:43;;;;;;;0.45;0.45;;;;;;;25.86;30.74;100618.91;5202929;28;20052;-80
2022/08/14 00:05:17;;;;;;;0.55;0.55;;;;;;;25.89;30.60;100615.94;5193199;28;20482;-79
2022/08/14 00:07:49;;;;;;;0.75;0.75;;;;;;;25.85;30.78;100607.31;5194340;28;20045;-80
2022/08/14 00:10:22;;;;;;;0.50;0.50;;;;;;;25.86;31.07;100609.03;5196629;28;20099;-79
2022/08/14 00:12:54;;;;;;;1.42;1.15;;;;;;;25.83;31.04;100603.06;5174874;28;20029;-80
2022/08/14 00:15:37;;;;;;;;;;;;;;;25.82;31.32;100598.69;5142704;28;20453;-79
2022/08/14 00:18:16;;;;;;;1.00;0.45;;;;;;;25.81;30.91;100603.22;5177230;28;19992;-80
2022/08/14 00:20:48;;;;;;;1.35;1.10;;;;;;;25.77;31.89;100591.91;5170046;28;20448;-80
2022/08/14 00:23:19;;;;;;;0.38;0.38;;;;;;;25.76;31.89;100592.91;5183308;28;20112;-79
2022/08/14 00:25:52;;;;;;;0.77;0.70;;;;;;;25.77;31.39;100593.75;5183703;28;20124;-80
2022/08/14 00:28:25;;;;;;;0.63;0.52;;;;;;;25.82;31.07;100590.66;5195085;28;20037;-80
2022/08/14 00:30:58;;;;;;;2.17;1.08;;;;;;;25.76;32.04;100586.69;5166658;28;20036;-79
2022/08/14 00:33:32;;;;;;;0.30;0.30;;;;;;;25.79;32.64;100574.78;5189890;28;20040;-79
2022/08/14 00:36:10;;;;;;;0.30;0.30;;;;;;;25.77;32.02;100575.78;5173718;28;20040;-79
2022/08/14 00:38:41;;;;;;;0.63;0.63;;;;;;;25.76;31.97;100574.09;5180545;28;20091;-79
2022/08/14 00:41:14;;;;;;;0.60;0.60;;;;;;;25.76;32.98;100568.72;5184522;28;20581;-81
2022/08/14 00:43:45;;;;;;;0.50;0.50;;;;;;;25.77;32.46;100573.09;5165725;28;20034;-81
2022/08/14 00:46:15;;;;;;;1.63;1.15;;;;;;;25.76;32.96;100566.03;5184702;28;20041;-80
2022/08/14 00:48:47;;;;;;;9.98;1.65;;;;;;;25.77;33.50;100558.81;5186599;28;20131;-80
2022/08/14 00:51:19;;;;;;;0.82;0.82;;;;;;;25.78;33.38;100563.22;5202365;28;20045;-80
2022/08/14 00:53:50;;;;;;;;;;;;;;;25.80;32.93;100555.84;5192026;28;20028;-81
2022/08/14 00:56:24;;;;;;;0.68;0.30;;;;;;;25.77;32.92;100554.28;5202347;28;19966;-82
2022/08/14 00:58:57;;;;;;;0.60;0.60;;;;;;;25.76;33.05;100554.44;5196383;28;20116;-79
2022/08/14 01:01:28;;;;;;;0.63;0.63;;;;;;;25.75;32.92;100540.13;5163324;28;20037;-79
2022/08/14 01:04:03;;;;;;;1.10;0.93;;;;;;;25.78;32.78;100541.72;5200868;28;20036;-79
2022/08/14 01:06:37;;;;;;;0.40;0.40;;;;;;;25.86;34.59;100543.66;5191904;28;20033;-79
2022/08/14 01:09:09;;;;;;;0.82;0.82;;;;;;;25.78;33.59;100536.34;5185470;28;20533;-79
2022/08/14 01:11:39;;;;;;;0.60;0.60;;;;;;;25.73;34.69;100533.22;5181987;28;20128;-80
2022/08/14 01:14:10;;;;;;;0.50;0.50;;;;;;;25.74;33.51;100530.38;5168749;28;20120;-79
2022/08/14 01:16:41;;;;;;;0.70;0.70;;;;;;;25.74;34.38;100527.69;5202062;28;20033;-79
2022/08/14 01:22:06;;;;;;;0.60;0.60;;;;;;;25.70;34.24;100517.41;5191358;28;20065;-81
2022/08/14 01:24:36;;;;;;;0.50;0.50;;;;;;;25.72;34.10;100513.59;5181446;28;20120;-80
2022/08/14 01:27:17;;;;;;;2.20;0.80;;;;;;;25.67;33.82;100504.25;5169872;28;20273;-80
2022/08/14 01:29:51;;;;;;;0.70;0.70;;;;;;;25.66;34.00;100506.09;5186564;28;20049;-81
2022/08/14 01:32:22;;;;;;;0.60;0.60;;;;;;;25.65;34.04;100498.19;5197995;28;20119;-82
2022/08/14 01:34:55;;;;;;;0.60;0.60;;;;;;;25.67;34.65;100497.03;5191313;28;20493;-80
2022/08/14 01:37:27;;;;;;;0.60;0.60;;;;;;;25.62;34.55;100493.94;5168064;28;20029;-79
2022/08/14 01:40:00;;;;;;;0.38;0.38;;;;;;;25.59;34.78;100492.41;5184804;28;20048;-80
2022/08/14 01:42:35;;;;;;;1.08;1.05;;;;;;;25.65;34.35;100493.66;5196434;28;20040;-80
2022/08/14 01:45:11;;;;;;;0.75;0.75;;;;;;;25.64;34.04;100491.09;5200689;28;20029;-79
2022/08/14 01:47:42;;;;;;;0.63;0.63;;;;;;;25.57;33.95;100485.50;5186354;28;20575;-79
2022/08/14 01:50:12;;;;;;;0.47;0.47;;;;;;;25.51;34.31;100486.91;5201383;28;20040;-80
2022/08/14 01:52:43;;;;;;;0.88;0.60;;;;;;;25.57;34.13;100493.56;5176700;28;20037;-79
2022/08/14 01:55:15;;;;;;;0.40;0.40;;;;;;;25.50;35.22;100484.34;5185649;28;20045;-81
2022/08/14 01:57:48;;;;;;;1.05;1.05;;;;;;;25.51;34.49;100483.38;5192902;28;20040;-80
2022/08/14 02:00:23;;;;;;;0.30;0.30;;;;;;;25.47;34.55;100485.50;5175122;28;20033;-80
2022/08/14 02:02:55;;;;;;;2.17;0.70;;;;;;;25.48;34.38;100481.00;5146308;28;20057;-79
2022/08/14 02:05:28;;;;;;;0.43;0.43;;;;;;;25.43;34.33;100484.09;5148907;28;20041;-79
2022/08/14 02:07:58;;;;;;;0.60;0.60;;;;;;;25.39;35.27;100480.88;5159245;28;20058;-79
2022/08/14 02:10:30;;;;;;;0.73;0.73;;;;;;;25.37;35.12;100480.13;5172151;28;20534;-80
2022/08/14 02:13:06;;;;;;;0.40;0.40;;;;;;;25.36;34.83;100489.16;5189440;28;20029;-80
2022/08/14 02:15:39;;;;;;;0.70;0.68;;;;;;;25.34;34.98;100482.25;5175017;28;20045;-80
2022/08/14 02:18:10;;;;;;;;;;;;;;;25.33;34.64;100492.13;5184343;28;20029;-80
2022/08/14 02:20:40;;;;;;;0.45;0.45;;;;;;;25.34;35.88;100490.31;5168877;28;19932;-81
2022/08/14 02:23:11;;;;;;;0.90;0.90;;;;;;;25.30;35.42;100493.25;5180828;28;20030;-80
2022/08/14 02:25:42;;;;;;;0.40;0.40;;;;;;;25.30;35.40;100487.06;5185645;28;20065;-79
2022/08/14 02:28:13;;;;;;;0.88;0.40;;;;;;;25.30;36.06;100485.22;5193684;28;20034;-80
2022/08/14 02:30:44;;;;;;;0.65;0.65;;;;;;;25.26;36.69;100488.31;5148884;28;20041;-80
2022/08/14 02:33:18;;;;;;;0.98;0.88;;;;;;;25.22;35.85;100484.25;5162766;28;20066;-80
2022/08/14 02:35:49;;;;;;;1.15;0.77;;;;;;;25.23;36.31;100494.00;5212496;28;20058;-81
2022/08/14 02:38:21;;;;;;;4.20;0.70;;;;;;;25.24;35.72;100487.63;5169894;28;20038;-79
2022/08/14 02:40:51;;;;;;;0.85;0.85;;;;;;;25.18;36.18;100491.72;5181581;28;20046;-80
2022/08/14 02:43:30;;;;;;;0.70;0.70;;;;;;;25.16;36.08;100488.34;5169805;28;20033;-80
2022/08/14 02:46:10;;;;;;;1.48;1.15;;;;;;;25.14;35.83;100491.19;5144526;28;20057;-80
2022/08/14 02:48:42;;;;;;;1.10;0.88;;;;;;;25.13;35.82;100497.53;5123323;28;20137;-79
2022/08/14 02:51:13;;;;;;;1.77;0.90;;;;;;;25.10;36.05;100497.81;5176302;28;20038;-78
2022/08/14 02:53:45;;;;;;;0.63;0.63;;;;;;;25.09;36.19;100492.59;5159106;28;20049;-78
2022/08/14 02:56:18;;;;;;;0.98;0.85;;;;;;;25.10;36.02;100487.06;5192588;28;20033;-79
2022/08/14 02:58:51;;;;;;;0.52;0.52;;;;;;;25.06;36.17;100477.63;5183071;28;20053;-80
2022/08/14 03:01:26;;;;;;;1.05;0.98;;;;;;;25.05;35.95;100481.28;5164754;28;20099;-80
2022/08/14 03:04:01;;;;;;;0.40;0.40;;;;;;;25.04;36.09;100479.59;5181182;28;20171;-79
2022/08/14 03:06:37;;;;;;;1.30;0.88;;;;;;;25.01;36.62;100479.88;5148052;28;20050;-78
2022/08/14 03:09:15;;;;;;;1.38;0.60;;;;;;;24.97;36.53;100470.41;5147831;28;20033;-78
2022/08/14 03:12:00;;;;;;;0.47;0.47;;;;;;;24.97;36.60;100468.56;5161843;28;20036;-79
2022/08/14 03:14:35;;;;;;;1.05;1.02;;;;;;;24.97;36.08;100465.88;5174836;28;20537;-80
2022/08/14 03:17:10;;;;;;;0.75;0.73;;;;;;;24.94;36.20;100462.63;5169976;28;20125;-78
2022/08/14 03:19:41;;;;;;;1.17;0.75;;;;;;;24.90;36.31;100461.25;5196573;28;20033;-79
2022/08/14 03:22:12;;;;;;;0.40;0.40;;;;;;;24.87;36.76;100456.16;5179761;28;20046;-80
2022/08/14 03:24:44;;;;;;;0.60;0.60;;;;;;;24.87;37.21;100461.50;5181680;28;20434;-79
2022/08/14 03:27:15;;;;;;;0.30;0.30;;;;;;;24.84;36.79;100457.28;5184461;28;20220;-81
2022/08/14 03:29:46;;;;;;;0.77;0.77;;;;;;;24.82;36.67;100456.56;5177695;28;20096;-81
2022/08/14 03:32:17;;;;;;;0.60;0.60;;;;;;;24.80;36.44;100453.16;5191315;28;20583;-81
2022/08/14 03:34:47;;;;;;;0.50;0.50;;;;;;;24.78;36.66;100455.16;5197780;28;20025;-81
2022/08/14 03:37:19;;;;;;;0.65;0.63;;;;;;;24.74;36.64;100453.75;5180624;28;20025;-80
2022/08/14 03:39:52;;;;;;;0.32;0.32;;;;;;;24.74;36.89;100449.25;5170586;28;20177;-78
2022/08/14 03:42:24;;;;;;;0.60;0.60;;;;;;;24.66;42.10;100454.41;5190340;28;20045;-80
2022/08/14 03:44:54;;;;;;;0.43;0.43;;;;;;;24.63;37.65;100444.78;5181000;28;20034;-79
2022/08/14 03:47:27;;;;;;;1.13;1.02;;;;;;;24.60;38.07;100446.91;5235544;28;20048;-80
2022/08/14 03:49:57;;;;;;;1.55;0.90;;;;;;;24.54;37.82;100451.03;5223556;28;20033;-82
2022/08/14 03:52:28;;;;;;;0.70;0.70;;;;;;;24.55;37.51;100457.22;5197436;28;20055;-82
2022/08/14 03:54:58;;;;;;;0.70;0.70;;;;;;;24.54;37.44;100458.22;5224035;28;20041;-82
2022/08/14 03:57:31;;;;;;;0.50;0.50;;;;;;;24.50;37.69;100452.28;5242571;28;20235;-82
2022/08/14 04:00:09;;;;;;;0.55;0.55;;;;;;;24.50;37.38;100450.44;5231212;28;20014;-81
2022/08/14 04:02:40;;;;;;;0.98;0.93;;;;;;;24.47;37.63;100453.41;5203052;28;20049;-80
2022/08/14 04:05:10;;;;;;;0.40;0.40;;;;;;;24.46;37.25;100445.50;5193470;28;20094;-80
2022/08/14 04:07:41;;;;;;;0.70;0.70;;;;;;;24.42;37.78;100450.28;5224712;28;20037;-80
2022/08/14 04:10:15;;;;;;;0.35;0.35;;;;;;;24.39;37.46;100445.22;5191046;28;20044;-80
2022/08/14 04:12:46;;;;;;;0.75;0.75;;;;;;;24.39;37.64;100447.88;5189388;28;20071;-80
2022/08/14 04:15:18;;;;;;;0.85;0.85;;;;;;;24.37;37.72;100449.84;5219141;28;20712;-80
2022/08/14 04:17:52;;;;;;;0.68;0.68;;;;;;;24.33;38.03;100451.13;5200717;28;20033;-80
2022/08/14 04:20:23;;;;;;;0.52;0.52;;;;;;;24.31;38.02;100450.41;5210395;28;20432;-81
2022/08/14 04:22:53;;;;;;;0.52;0.52;;;;;;;24.29;37.85;100447.00;5197312;28;20021;-81
2022/08/14 04:25:24;;;;;;;1.23;1.13;;;;;;;24.27;38.28;100441.81;5191051;28;20641;-80
2022/08/14 04:27:55;;;;;;;0.63;0.63;;;;;;;24.29;37.67;100438.97;5199209;28;20032;-80
2022/08/14 04:30:27;;;;;;;0.80;0.80;;;;;;;24.26;37.74;100425.84;5210046;28;20078;-80
2022/08/14 04:32:58;;;;;;;;;;;;;;;24.23;38.27;100420.78;5203051;28;20055;-81
2022/08/14 04:35:29;;;;;;;0.55;0.55;;;;;;;24.18;41.00;100424.69;5194054;28;19913;-80
2022/08/14 04:43:39;;;;;;;0.60;0.60;;;;;;;24.14;39.88;100425.97;5198907;28;20052;-81
2022/08/14 04:46:14;;;;;;;0.70;0.70;;;;;;;24.11;39.22;100428.91;5212107;28;20041;-80
2022/08/14 04:48:46;;;;;;;1.05;0.95;;;;;;;24.13;39.40;100421.59;5197612;28;20037;-81
2022/08/14 04:51:19;;;;;;;0.55;0.55;;;;;;;24.08;40.87;100414.94;5195115;28;20168;-81
2022/08/14 04:53:50;;;;;;;0.60;0.60;;;;;;;24.06;39.22;100412.41;5167277;28;20032;-80
2022/08/14 04:56:23;;;;;;;1.05;0.98;;;;;;;24.07;39.69;100408.75;5190625;28;20037;-80
2022/08/14 04:58:58;;;;;;;0.50;0.50;;;;;;;23.99;41.74;100408.59;5208777;28;20037;-81
2022/08/14 05:01:29;;;;;;;0.70;0.70;;;;;;;23.96;41.29;100408.84;5200630;28;20515;-80
2022/08/14 05:04:00;;;;;;;0.45;0.45;;;;;;;23.98;41.45;100412.25;5188935;28;20045;-81
2022/08/14 05:06:30;;;;;;;0.55;0.40;;;;;;;23.95;40.61;100413.38;5158114;28;20045;-80
2022/08/14 05:09:01;;;;;;;0.88;0.85;;;;;;;23.87;42.42;100411.31;5184220;28;20026;-80
2022/08/14 05:11:34;;;;;;;2.08;1.08;;;;;;;23.86;42.45;100406.09;5175250;28;20052;-81
2022/08/14 05:14:09;;;;;;;1.08;0.98;;;;;;;23.88;43.40;100402.31;5199662;28;20064;-80
2022/08/14 05:16:40;;;;;;;0.65;0.65;;;;;;;23.82;42.33;100408.22;5173871;28;20635;-80
2022/08/14 05:19:13;;;;;;;0.60;0.60;;;;;;;23.84;42.23;100406.22;5199908;28;20040;-80
2022/08/14 05:21:43;;;;;;;0.70;0.70;;;;;;;23.74;42.78;100403.50;5158861;28;20041;-81
2022/08/14 05:24:14;;;;;;;0.55;0.55;;;;;;;23.75;41.81;100399.03;5213928;28;20036;-80
2022/08/14 05:26:45;;;;;;;0.60;0.57;;;;;;;23.75;42.18;100396.34;5213452;28;20033;-82
2022/08/14 05:29:16;;;;;;;0.60;0.60;;;;;;;23.73;41.15;100399.13;5184698;28;20036;-80
2022/08/14 05:31:47;;;;;;;0.73;0.73;;;;;;;23.75;41.02;100401.72;5182692;28;20143;-79
2022/08/14 05:34:18;;;;;;;1.48;1.27;;;;;;;23.73;40.87;100400.97;5199145;28;20052;-78
2022/08/14 05:36:48;;;;;;;0.40;0.40;;;;;;;23.75;40.79;100396.34;5181087;28;20029;-79
2022/08/14 05:39:19;;;;;;;0.85;0.60;;;;;;;23.76;43.17;100397.19;5201995;28;20036;-78
2022/08/14 05:41:50;;;;;;;0.60;0.60;;;;;;;23.78;40.61;100392.53;5203815;28;20498;-78
2022/08/14 05:44:21;;;;;;;1.58;1.48;;;;;;;23.77;40.98;100391.69;5176113;28;20048;-79
2022/08/14 05:46:51;;;;;;;0.30;0.30;;;;;;;23.80;40.84;100399.47;5197426;28;20029;-78
2022/08/14 05:49:22;;;;;;;0.80;0.80;;;;;;;23.77;41.31;100394.34;5176992;28;20051;-78
2022/08/14 05:51:52;;;;;;;1.13;0.98;;;;;;;23.83;40.81;100392.97;5190489;28;20129;-79
2022/08/14 05:54:24;;;;;;;0.80;0.73;;;;;;;23.83;41.20;100393.84;5165782;28;20113;-80
2022/08/14 05:56:54;;;;;;;0.90;0.90;;;;;;;23.87;40.74;100384.53;5207677;28;20545;-80
2022/08/14 05:59:25;;;;;;;1.08;0.82;;;;;;;23.92;40.92;100394.00;5173563;28;20040;-80
2022/08/14 06:01:55;;;;;;;0.52;0.52;;;;;;;23.96;40.96;100382.06;5199932;28;20037;-81
2022/08/14 06:04:27;;;;;;;0.47;0.47;;;;;;;24.01;40.34;100385.16;5199231;28;20064;-80
2022/08/14 06:06:58;;;;;;;1.38;1.27;;;;;;;24.07;40.81;100390.00;5183156;28;20588;-79
2022/08/14 06:09:29;;;;;;;0.40;0.40;;;;;;;24.09;40.82;100389.84;5193577;28;20037;-79
2022/08/14 06:11:59;;;;;;;0.90;0.70;;;;;;;24.13;40.82;100389.44;5209335;28;20147;-80
2022/08/14 06:14:30;;;;;;;0.75;0.75;;;;;;;24.19;40.97;100388.88;5165455;28;20041;-81
2022/08/14 06:17:00;;;;;;;0.75;0.75;;;;;;;24.20;40.77;100379.84;5195128;28;20048;-80
2022/08/14 06:19:31;;;;;;;0.77;0.75;;;;;;;24.23;40.95;100388.59;5194581;28;20209;-82
2022/08/14 06:22:02;;;;;;;0.43;0.43;;;;;;;24.25;41.59;100383.97;5167871;28;20044;-79
2022/08/14 06:24:33;;;;;;;0.30;0.30;;;;;;;24.26;40.99;100383.81;5176807;28;20056;-80
2022/08/14 06:27:06;;;;;;;1.60;0.80;;;;;;;24.31;40.60;100386.06;5184243;28;20121;-80
2022/08/14 06:29:39;;;;;;;0.38;0.38;;;;;;;24.30;41.60;100379.84;5218895;28;20504;-81
2022/08/14 06:32:11;;;;;;;0.50;0.50;;;;;;;24.31;41.79;100380.72;5190260;28;20045;-81
2022/08/14 06:34:41;;;;;;;0.60;0.60;;;;;;;24.36;41.77;100373.94;5186399;28;20032;-81
2022/08/14 06:37:12;;;;;;;0.75;0.70;;;;;;;24.34;42.00;100375.91;5181855;28;20044;-83
2022/08/14 06:39:42;;;;;;;0.73;0.73;;;;;;;24.41;41.79;100370.84;5205655;28;20597;-81
2022/08/14 06:42:13;;;;;;;0.73;0.73;;;;;;;24.45;41.94;100374.09;5203829;28;20387;-81
2022/08/14 06:44:44;;;;;;;0.55;0.47;;;;;;;24.42;41.73;100371.69;5207981;28;20101;-80
2022/08/14 06:47:14;;;;;;;0.40;0.40;;;;;;;24.46;42.72;100368.59;5234889;28;20105;-80
2022/08/14 06:49:45;;;;;;;0.60;0.60;;;;;;;24.48;42.10;100361.25;5206839;28;20037;-79
2022/08/14 06:52:15;;;;;;;0.50;0.50;;;;;;;24.44;42.09;100357.13;5193390;28;20048;-80
2022/08/14 06:54:46;;;;;;;0.30;0.30;;;;;;;24.45;44.08;100358.84;5182959;28;20108;-80
2022/08/14 06:57:16;;;;;;;0.95;0.55;;;;;;;24.49;42.63;100349.53;5205973;28;20037;-80
2022/08/14 06:59:47;;;;;;;1.35;0.68;;;;;;;24.51;42.64;100354.75;5203614;28;20132;-80
2022/08/14 07:08:02;;;;;;;0.50;0.50;;;;;;;24.62;42.96;100337.66;5191774;28;20045;-80
2022/08/14 07:10:39;;;;;;;0.60;0.60;;;;;;;24.58;42.47;100328.22;5189546;28;20041;-81
2022/08/14 07:13:17;;;;;;;1.13;1.08;;;;;;;24.64;42.24;100335.69;5200393;28;20067;-80
2022/08/14 07:15:50;;;;;;;0.52;0.52;;;;;;;24.63;42.47;100339.34;5213630;28;20037;-82
2022/08/14 07:18:22;;;;;;;0.98;0.90;;;;;;;24.64;44.55;100335.69;5223531;28;20101;-81
2022/08/14 07:20:53;;;;;;;;;;;;;;;24.70;42.50;100332.47;5201215;28;20124;-81
2022/08/14 07:23:25;;;;;;;0.52;0.52;;;;;;;24.74;42.38;100335.69;5203707;28;20007;-81
2022/08/14 07:25:57;;;;;;;0.70;0.70;;;;;;;24.71;43.60;100328.78;5213701;28;20112;-81
2022/08/14 07:28:33;;;;;;;1.40;1.30;;;;;;;24.74;43.19;100336.56;5190012;28;20033;-81
2022/08/14 07:31:10;;;;;;;9.40;1.50;;;;;;;24.81;42.43;100335.00;5200588;28;20128;-81
2022/08/14 07:33:47;;;;;;;0.80;0.80;;;;;;;24.96;42.37;100332.69;5204008;28;20037;-80
2022/08/14 07:36:20;;;;;;;0.45;0.45;;;;;;;25.10;43.17;100336.75;5192276;28;20044;-81
2022/08/14 07:38:50;;;;;;;0.30;0.30;;;;;;;25.17;42.92;100328.09;5187289;28;20460;-80
2022/08/14 07:41:21;;;;;;;1.00;0.80;;;;;;;25.30;42.85;100323.28;5166390;28;20048;-79
2022/08/14 07:43:51;;;;;;;0.50;0.50;;;;;;;25.36;42.47;100325.38;5220244;28;20033;-80
2022/08/14 07:46:23;;;;;;;0.40;0.40;;;;;;;25.42;42.45;100321.28;5197845;28;20406;-80
2022/08/14 07:48:53;;;;;;;0.30;0.30;;;;;;;25.46;42.21;100322.66;5184104;28;20041;-78
2022/08/14 07:51:24;;;;;;;0.93;0.90;;;;;;;25.40;43.06;100323.25;5182542;28;20064;-80
2022/08/14 07:53:56;;;;;;;0.77;0.77;;;;;;;25.44;42.80;100320.13;5201233;28;20033;-80
2022/08/14 07:56:27;;;;;;;0.40;0.40;;;;;;;25.51;42.53;100324.91;5216086;28;20039;-80
2022/08/14 07:58:58;;;;;;;3.92;1.63;;;;;;;25.49;44.66;100317.00;5171332;28;20017;-81
2022/08/14 08:01:32;;;;;;;1.00;0.75;;;;;;;25.55;42.71;100320.94;5188499;28;20072;-81
2022/08/14 08:04:07;;;;;;;0.57;0.57;;;;;;;25.53;42.76;100329.16;5169716;28;20034;-80
2022/08/14 08:06:43;;;;;;;1.27;0.57;;;;;;;25.49;44.55;100333.13;5208206;28;20041;-80
2022/08/14 08:09:17;;;;;;;0.38;0.38;;;;;;;25.50;43.05;100329.44;5193225;28;20109;-81
2022/08/14 08:11:48;;;;;;;0.63;0.63;;;;;;;25.53;43.82;100337.22;5184927;28;20037;-80
2022/08/14 08:14:21;;;;;;;2.22;1.52;;;;;;;25.65;44.02;100335.16;5207698;28;20087;-81
2022/08/14 08:16:52;;;;;;;1.35;1.15;;;;;;;25.64;43.40;100327.25;5186112;28;20725;-80
2022/08/14 08:19:23;;;;;;;0.70;0.70;;;;;;;25.58;44.32;100331.38;5192432;28;20635;-81
2022/08/14 08:21:57;;;;;;;1.13;1.02;;;;;;;25.63;43.02;100323.72;5186221;28;20053;-80
2022/08/14 08:24:27;;;;;;;1.50;0.90;;;;;;;25.63;44.76;100323.72;5188977;28;20585;-80
2022/08/14 08:26:59;;;;;;;0.82;0.77;;;;;;;25.71;43.54;100313.06;5205219;28;20120;-80
2022/08/14 08:29:31;;;;;;;0.47;0.47;;;;;;;25.71;43.12;100313.06;5204209;28;20058;-80
2022/08/14 08:32:07;;;;;;;0.85;0.85;;;;;;;25.68;43.68;100305.31;5197700;28;20033;-81
2022/08/14 08:34:47;;;;;;;0.52;0.52;;;;;;;25.71;43.94;100310.38;5182521;28;20037;-80
2022/08/14 08:37:18;;;;;;;0.55;0.55;;;;;;;25.79;42.99;100311.47;5188727;28;20056;-79
2022/08/14 08:39:48;;;;;;;0.45;0.45;;;;;;;25.79;42.89;100317.69;5206715;28;20057;-80
2022/08/14 08:42:25;;;;;;;0.77;0.77;;;;;;;25.84;43.26;100311.84;5211509;28;20592;-80
2022/08/14 08:44:56;;;;;;;0.82;0.70;;;;;;;25.88;43.45;100315.94;5200267;28;20033;-80
2022/08/14 08:47:37;;;;;;;0.60;0.47;;;;;;;25.98;43.12;100313.19;5187326;28;20561;-80
2022/08/14 08:50:21;;;;;;;0.60;0.60;;;;;;;25.93;42.83;100310.94;5177155;28;20037;-80
2022/08/14 08:52:54;;;;;;;0.57;0.57;;;;;;;25.93;43.50;100303.75;5183760;28;20040;-80
2022/08/14 08:55:30;;;;;;;0.63;0.63;;;;;;;25.93;43.68;100301.06;5206311;28;20033;-80
2022/08/14 08:58:09;;;;;;;1.70;1.20;;;;;;;25.98;43.59;100302.44;5205409;28;20102;-79
2022/08/14 09:00:41;;;;;;;0.68;0.68;;;;;;;26.06;43.16;100300.69;5184791;28;20032;-80
2022/08/14 09:03:19;;;;;;;1.48;0.85;;;;;;;26.05;43.11;100301.69;5215169;28;20044;-79
2022/08/14 09:05:54;;;;;;;0.70;0.70;;;;;;;26.10;43.50;100297.69;5189693;28;20397;-79
2022/08/14 09:08:28;;;;;;;0.75;0.75;;;;;;;26.12;44.39;100295.72;5209732;28;20116;-79
2022/08/14 09:11:11;;;;;;;0.70;0.70;;;;;;;26.21;43.99;100292.09;5204240;28;20041;-80
2022/08/14 09:13:41;;;;;;;1.00;0.70;;;;;;;26.23;43.05;100293.63;5191580;28;20553;-80
2022/08/14 09:16:12;;;;;;;0.90;0.90;;;;;;;26.30;44.04;100293.88;5212559;28;20137;-80
2022/08/14 09:18:43;;;;;;;1.08;0.98;;;;;;;26.28;43.65;100287.78;5192901;28;20041;-80
2022/08/14 09:21:14;;;;;;;0.90;0.85;;;;;;;26.32;42.99;100281.09;5216737;28;20055;-80
2022/08/14 09:23:45;;;;;;;0.30;0.30;;;;;;;26.38;43.01;100275.13;5204010;28;20040;-80
2022/08/14 09:26:16;;;;;;;1.20;0.98;;;;;;;26.34;43.24;100275.56;5201843;28;20085;-79
2022/08/14 09:28:46;;;;;;;0.80;0.68;;;;;;;26.44;42.46;100275.47;5222887;28;20025;-79
2022/08/14 09:31:18;;;;;;;0.63;0.57;;;;;;;26.46;42.38;100265.41;5172267;28;20040;-79
2022/08/14 09:34:10;;;;;;;5.25;0.85;;;;;;;26.57;42.36;100273.22;5190555;28;20128;-79
2022/08/14 09:36:49;;;;;;;0.30;0.30;;;;;;;26.50;41.99;100264.94;5215958;28;20029;-79
2022/08/14 09:39:48;;;;;;;0.60;0.60;;;;;;;26.56;42.18;100258.09;5212065;28;20036;-80
2022/08/14 09:42:33;;;;;;;4.68;0.90;;;;;;;26.60;41.53;100259.47;5166875;28;20040;-80
2022/08/14 09:45:37;;;;;;;4.00;1.80;;;;;;;26.58;41.69;100256.06;5204128;28;20036;-80
2022/08/14 09:48:16;;;;;;;0.52;0.52;;;;;;;26.60;41.92;100251.38;5204144;28;20035;-80
2022/08/14 09:50:51;;;;;;;0.70;0.70;;;;;;;26.71;41.53;100240.38;5203865;28;20777;-81
2022/08/14 09:53:36;;;;;;;0.65;0.65;;;;;;;26.78;41.52;100247.84;5213625;28;20564;-80
2022/08/14 09:56:10;;;;;;;0.95;0.95;;;;;;;26.75;41.12;100248.13;5209370;28;20033;-80
2022/08/14 09:58:45;;;;;;;0.73;0.73;;;;;;;26.77;41.11;100238.06;5187784;28;20036;-80
2022/08/14 10:01:18;;;;;;;0.60;0.60;;;;;;;26.78;41.55;100240.59;5187583;28;20044;-80
2022/08/14 10:03:55;;;;;;;2.03;0.60;;;;;;;26.89;41.73;100239.50;5191064;28;20114;-80
2022/08/14 10:06:27;;;;;;;0.73;0.70;;;;;;;26.92;41.50;100232.94;5199452;28;20133;-80
2022/08/14 10:09:08;;;;;;;0.63;0.40;;;;;;;26.95;41.72;100225.41;5205679;28;20037;-80
2022/08/14 10:11:40;;;;;;;0.20;0.20;;;;;;;27.00;41.19;100223.06;5230762;28;20422;-79
2022/08/14 10:14:14;;;;;;;0.38;0.38;;;;;;;27.07;40.92;100219.72;5186311;28;20032;-80
2022/08/14 10:16:47;;;;;;;0.60;0.60;;;;;;;27.08;39.56;100221.41;5190693;28;20033;-80
2022/08/14 10:19:18;;;;;;;0.75;0.50;;;;;;;27.16;39.40;100224.97;5181991;28;20029;-80
2022/08/14 10:22:10;;;;;;;0.82;0.68;;;;;;;27.16;39.92;100213.34;5198993;28;20517;-80
2022/08/14 10:24:45;;;;;;;0.45;0.45;;;;;;;27.28;39.76;100212.06;5176911;28;20453;-80
2022/08/14 10:27:18;;;;;;;1.05;0.95;;;;;;;27.30;39.25;100211.91;5211390;28;20539;-80
2022/08/14 10:29:59;;;;;;;0.57;0.57;;;;;;;27.38;39.53;100205.69;5173133;28;20041;-80
2022/08/14 10:32:43;;;;;;;0.85;0.75;;;;;;;27.43;38.83;100208.75;5184459;28;20505;-80
2022/08/14 10:35:15;;;;;;;0.52;0.52;;;;;;;27.52;38.23;100204.25;5234370;28;20033;-80
2022/08/14 10:37:49;;;;;;;;;;;;;;;27.49;38.24;100202.72;5173613;28;20029;-80
2022/08/14 10:40:28;;;;;;;3.20;1.10;;;;;;;27.59;37.48;100195.34;5192418;28;19956;-80
2022/08/14 10:42:59;;;;;;;0.43;0.43;;;;;;;27.60;38.01;100199.72;5199564;28;20397;-80
2022/08/14 10:45:32;;;;;;;0.47;0.47;;;;;;;27.62;38.19;100192.31;5176712;28;20116;-80
2022/08/14 10:48:13;;;;;;;0.60;0.60;;;;;;;27.71;38.10;100190.47;5207368;28;20018;-81
2022/08/14 10:50:48;;;;;;;0.47;0.47;;;;;;;27.75;38.18;100185.56;5200784;28;20046;-80
2022/08/14 10:53:34;;;;;;;1.20;0.82;;;;;;;27.79;37.88;100186.94;5218767;28;20063;-80
2022/08/14 10:56:10;;;;;;;0.40;0.40;;;;;;;27.96;37.41;100185.94;5187785;28;20036;-80
2022/08/14 10:58:40;;;;;;;0.40;0.40;;;;;;;28.00;37.43;100182.88;5193784;28;20025;-80
2022/08/14 11:01:11;;;;;;;0.57;0.57;;;;;;;28.02;37.57;100181.72;5203189;28;20044;-80
2022/08/14 11:03:42;;;;;;;0.82;0.82;;;;;;;28.05;36.81;100183.25;5180462;28;20029;-80
2022/08/14 11:06:22;;;;;;;0.38;0.38;;;;;;;28.09;36.72;100184.59;5213126;28;20040;-80
2022/08/14 11:08:53;;;;;;;0.30;0.30;;;;;;;28.12;36.37;100189.69;5197933;28;20025;-80
2022/08/14 11:11:26;;;;;;;3.22;0.95;;;;;;;28.26;35.45;100178.19;5188382;28;20040;-80
2022/08/14 11:13:59;;;;;;;0.30;0.30;;;;;;;28.30;35.47;100175.16;5196408;28;20561;-80
2022/08/14 11:16:30;;;;;;;1.90;0.43;;;;;;;28.39;35.54;100166.88;5183688;28;20154;-80
2022/08/14 11:19:10;;;;;;;0.52;0.52;;;;;;;28.42;35.61;100169.25;5187134;28;20112;-80
2022/08/14 11:21:43;;;;;;;0.60;0.60;;;;;;;28.57;34.96;100168.53;5216382;28;20080;-80
2022/08/14 11:24:16;;;;;;;0.40;0.40;;;;;;;28.57;35.44;100155.84;5187350;28;20037;-80
2022/08/14 11:26:47;;;;;;;0.35;0.35;;;;;;;28.58;35.46;100146.75;5200585;28;20029;-80
2022/08/14 11:29:21;;;;;;;0.32;0.28;;;;;;;28.61;35.01;100147.44;5220279;28;20118;-80
2022/08/14 11:31:54;;;;;;;0.30;0.30;;;;;;;28.71;35.45;100153.50;5196700;28;20057;-81
2022/08/14 11:34:25;;;;;;;0.75;0.63;;;;;;;28.82;34.94;100150.41;5173546;28;20037;-80
2022/08/14 11:36:56;;;;;;;0.45;0.35;;;;;;;28.81;34.84;100143.31;5200827;28;20045;-81
2022/08/14 11:39:27;;;;;;;4.40;1.48;;;;;;;28.87;34.70;100139.06;5202898;28;20504;-80
2022/08/14 11:41:59;;;;;;;0.75;0.55;;;;;;;28.95;34.82;100130.94;5201062;28;20044;-80
2022/08/14 11:44:29;;;;;;;0.30;0.30;;;;;;;29.00;34.71;100125.00;5197799;28;20064;-80
2022/08/14 11:47:18;;;;;;;0.40;0.40;;;;;;;29.07;34.77;100125.16;5179623;28;20037;-80
2022/08/14 11:49:49;;;;;;;0.63;0.63;;;;;;;29.16;34.19;100113.28;5215786;28;20044;-80
2022/08/14 11:52:19;;;;;;;0.70;0.70;;;;;;;29.22;33.81;100096.38;5204878;28;20041;-81
2022/08/14 11:54:57;;;;;;;0.50;0.50;;;;;;;29.27;33.37;100103.94;5191573;28;20040;-80
2022/08/14 11:57:31;;;;;;;0.28;0.28;;;;;;;29.43;33.25;100120.06;5197175;28;20068;-80
2022/08/14 12:00:26;;;;;;;0.60;0.60;;;;;;;29.45;32.44;100120.72;5212684;28;20217;-81
2022/08/14 12:03:09;;;;;;;0.68;0.68;;;;;;;29.47;33.50;100113.25;5220088;28;20548;-80
2022/08/14 12:05:41;;;;;;;0.57;0.57;;;;;;;29.61;32.59;100114.34;5189089;28;20466;-81
2022/08/14 12:08:12;;;;;;;;;;;;;;;29.66;32.87;100108.38;5184762;28;20028;-80